createdAt,value
2018-04-28T00:01:03.179Z,11.54
2018-04-28T00:02:03.235Z,11.50
2018-04-28T00:03:56.215Z,11.51
2018-04-28T00:04:56.274Z,11.48
2018-04-28T00:06:49.275Z,11.57
2018-04-28T00:07:49.388Z,11.57
2018-04-28T00:09:42.311Z,11.54
2018-04-28T00:10:42.368Z,11.62
2018-04-28T00:12:35.353Z,11.50
2018-04-28T00:13:35.412Z,11.50
2018-04-28T00:15:28.408Z,11.48
2018-04-28T00:16:28.464Z,11.51
2018-04-28T00:18:21.448Z,11.54
2018-04-28T00:19:21.510Z,11.50
2018-04-28T00:21:16.005Z,11.59
2018-04-28T00:22:16.061Z,11.59
2018-04-28T00:24:09.044Z,11.50
2018-04-28T00:25:09.104Z,11.51
2018-04-28T00:27:02.096Z,11.47
2018-04-28T00:28:02.147Z,11.47
2018-04-28T00:29:55.132Z,11.52
2018-04-28T00:30:55.192Z,11.44
2018-04-28T00:32:48.187Z,11.50
2018-04-28T00:33:48.244Z,11.43
2018-04-28T00:35:41.326Z,11.43
2018-04-28T00:36:41.287Z,11.51
2018-04-28T00:38:34.273Z,11.50
2018-04-28T00:39:34.339Z,11.47
2018-04-28T00:41:27.330Z,11.45
2018-04-28T00:42:27.379Z,11.36
2018-04-28T00:44:20.368Z,11.43
2018-04-28T00:45:20.431Z,11.43
2018-04-28T00:47:13.417Z,11.37
2018-04-28T00:48:13.470Z,11.30
2018-04-28T00:50:06.455Z,11.25
2018-04-28T00:51:06.517Z,11.30
2018-04-28T00:52:59.505Z,11.22
2018-04-28T00:53:59.560Z,11.32
2018-04-28T00:55:52.552Z,11.29
2018-04-28T00:56:52.603Z,11.25
2018-04-28T00:58:45.593Z,11.25
2018-04-28T00:59:45.655Z,11.33
2018-04-28T01:01:38.649Z,11.30
2018-04-28T01:02:38.699Z,11.19
2018-04-28T01:04:31.683Z,11.29
2018-04-28T01:05:31.743Z,11.35
2018-04-28T01:07:24.745Z,11.40
2018-04-28T01:08:24.801Z,11.44
2018-04-28T01:10:17.786Z,11.41
2018-04-28T01:11:17.847Z,11.41
2018-04-28T01:13:10.841Z,11.40
2018-04-28T01:14:10.893Z,11.41
2018-04-28T01:16:03.881Z,11.40
2018-04-28T01:17:03.942Z,11.41
2018-04-28T01:18:56.916Z,11.33
2018-04-28T01:19:56.978Z,11.36
2018-04-28T01:21:50.476Z,11.43
2018-04-28T01:22:50.527Z,11.30
2018-04-28T01:24:43.515Z,11.32
2018-04-28T01:25:43.575Z,11.29
2018-04-28T01:27:36.569Z,11.27
2018-04-28T01:28:36.620Z,11.22
2018-04-28T01:30:29.603Z,11.25
2018-04-28T01:31:29.663Z,11.19
2018-04-28T01:33:22.658Z,11.29
2018-04-28T01:34:22.709Z,11.27
2018-04-28T01:36:15.698Z,11.27
2018-04-28T01:37:15.752Z,11.26
2018-04-28T01:39:08.745Z,11.37
2018-04-28T01:40:08.805Z,11.25
2018-04-28T01:42:01.795Z,11.32
2018-04-28T01:43:01.849Z,11.36
2018-04-28T01:44:54.830Z,11.23
2018-04-28T01:45:54.891Z,11.27
2018-04-28T01:47:47.880Z,11.30
2018-04-28T01:48:47.940Z,11.27
2018-04-28T01:50:40.918Z,11.26
2018-04-28T01:51:40.978Z,11.25
2018-04-28T01:53:33.981Z,11.22
2018-04-28T01:54:34.022Z,11.22
2018-04-28T01:56:27.012Z,11.12
2018-04-28T01:57:27.065Z,11.15
2018-04-28T01:59:20.052Z,11.12
2018-04-28T02:00:20.110Z,11.02
2018-04-28T02:02:13.099Z,11.04
2018-04-28T02:03:13.154Z,11.02
2018-04-28T02:05:06.147Z,11.05
2018-04-28T02:06:06.206Z,11.05
2018-04-28T02:07:59.194Z,11.14
2018-04-28T02:08:59.251Z,11.15
2018-04-28T02:10:52.233Z,11.15
2018-04-28T02:11:52.294Z,11.19
2018-04-28T02:13:45.287Z,11.22
2018-04-28T02:14:45.339Z,11.26
2018-04-28T02:16:38.334Z,11.29
2018-04-28T02:17:38.388Z,11.29
2018-04-28T02:19:31.375Z,11.23
2018-04-28T02:20:31.438Z,11.27
2018-04-28T02:22:25.929Z,11.23
2018-04-28T02:23:25.984Z,11.23
2018-04-28T02:25:18.965Z,11.15
2018-04-28T02:26:19.026Z,11.26
2018-04-28T02:28:12.014Z,11.12
2018-04-28T02:29:12.067Z,11.22
2018-04-28T02:31:05.050Z,11.10
2018-04-28T02:32:05.110Z,11.22
2018-04-28T02:33:58.099Z,11.18
2018-04-28T02:34:58.152Z,11.25
2018-04-28T02:36:51.147Z,11.23
2018-04-28T02:37:51.197Z,11.11
2018-04-28T02:39:44.181Z,11.15
2018-04-28T02:40:44.242Z,11.15
2018-04-28T02:42:37.233Z,11.19
2018-04-28T02:43:37.283Z,11.22
2018-04-28T02:45:30.270Z,11.11
2018-04-28T02:46:30.328Z,11.26
2018-04-28T02:48:23.314Z,11.19
2018-04-28T02:49:23.567Z,11.17
2018-04-28T02:51:16.356Z,11.17
2018-04-28T02:52:16.415Z,11.11
2018-04-28T02:54:09.407Z,11.11
2018-04-28T02:55:09.459Z,11.00
2018-04-28T02:57:02.452Z,10.97
2018-04-28T02:58:02.501Z,10.97
2018-04-28T02:59:55.483Z,10.94
2018-04-28T03:00:55.540Z,10.93
2018-04-28T03:02:48.539Z,10.87
2018-04-28T03:03:48.597Z,10.86
2018-04-28T03:05:41.569Z,10.89
2018-04-28T03:06:41.629Z,10.84
2018-04-28T03:08:34.623Z,10.81
2018-04-28T03:09:34.671Z,10.82
2018-04-28T03:11:27.666Z,10.87
2018-04-28T03:12:27.724Z,10.87
2018-04-28T03:14:20.709Z,10.78
2018-04-28T03:15:20.762Z,10.79
2018-04-28T03:17:13.752Z,10.86
2018-04-28T03:18:13.806Z,10.86
2018-04-28T03:20:06.792Z,10.84
2018-04-28T03:21:06.850Z,10.89
2018-04-28T03:22:59.838Z,10.92
2018-04-28T03:23:59.891Z,10.99
2018-04-28T03:25:53.382Z,11.02
2018-04-28T03:26:53.443Z,10.92
2018-04-28T03:28:46.429Z,11.08
2018-04-28T03:29:46.482Z,11.08
2018-04-28T03:31:39.479Z,11.12
2018-04-28T03:32:39.536Z,11.18
2018-04-28T03:34:32.529Z,11.15
2018-04-28T03:35:32.581Z,11.17
2018-04-28T03:37:25.574Z,11.19
2018-04-28T03:38:25.624Z,11.25
2018-04-28T03:40:18.609Z,11.32
2018-04-28T03:41:18.668Z,11.23
2018-04-28T03:43:11.654Z,11.43
2018-04-28T03:44:11.709Z,11.52
2018-04-28T03:46:04.692Z,11.52
2018-04-28T03:47:04.752Z,11.52
2018-04-28T03:48:57.744Z,11.60
2018-04-28T03:49:58.075Z,11.65
2018-04-28T03:51:50.777Z,11.69
2018-04-28T03:52:50.835Z,11.65
2018-04-28T03:54:43.834Z,11.68
2018-04-28T03:55:43.885Z,11.57
2018-04-28T03:57:36.876Z,11.63
2018-04-28T03:58:36.927Z,11.54
2018-04-28T04:00:29.911Z,11.63
2018-04-28T04:01:29.973Z,11.57
2018-04-28T04:03:22.982Z,11.57
2018-04-28T04:04:23.034Z,11.65
2018-04-28T04:06:16.026Z,11.63
2018-04-28T04:07:16.077Z,11.69
2018-04-28T04:09:09.090Z,11.52
2018-04-28T04:10:09.118Z,11.60
2018-04-28T04:12:02.106Z,11.55
2018-04-28T04:13:02.160Z,11.54
2018-04-28T04:14:55.147Z,11.51
2018-04-28T04:15:55.201Z,11.52
2018-04-28T04:17:48.196Z,11.52
2018-04-28T04:18:48.243Z,11.48
2018-04-28T04:20:41.238Z,11.48
2018-04-28T04:21:41.288Z,11.59
2018-04-28T04:23:34.277Z,11.54
2018-04-28T04:24:34.331Z,11.62
2018-04-28T04:26:27.901Z,11.52
2018-04-28T04:27:27.880Z,11.54
2018-04-28T04:29:21.368Z,11.54
2018-04-28T04:30:21.448Z,11.51
2018-04-28T04:32:14.406Z,11.55
2018-04-28T04:33:14.464Z,11.60
2018-04-28T04:35:07.457Z,11.65
2018-04-28T04:36:07.507Z,11.63
2018-04-28T04:38:00.498Z,11.66
2018-04-28T04:39:00.551Z,11.69
2018-04-28T04:40:53.532Z,11.70
2018-04-28T04:41:53.592Z,11.86
2018-04-28T04:43:46.599Z,11.86
2018-04-28T04:44:46.647Z,11.88
2018-04-28T04:46:39.633Z,11.94
2018-04-28T04:47:39.691Z,11.87
2018-04-28T04:49:35.434Z,12.04
2018-04-28T04:50:32.738Z,11.97
2018-04-28T04:52:25.720Z,12.02
2018-04-28T04:53:25.781Z,12.09
2018-04-28T04:55:18.776Z,12.18
2018-04-28T04:56:18.825Z,12.10
2018-04-28T04:58:11.818Z,12.21
2018-04-28T04:59:11.872Z,12.39
2018-04-28T05:01:04.860Z,12.40
2018-04-28T05:02:04.916Z,12.42
2018-04-28T05:03:57.969Z,12.58
2018-04-28T05:04:57.961Z,12.47
2018-04-28T05:06:50.944Z,12.68
2018-04-28T05:07:51.008Z,12.73
2018-04-28T05:09:44.007Z,12.73
2018-04-28T05:10:44.059Z,12.76
2018-04-28T05:12:37.047Z,12.79
2018-04-28T05:13:37.110Z,12.87
2018-04-28T05:15:30.096Z,12.94
2018-04-28T05:16:30.166Z,12.95
2018-04-28T05:18:23.141Z,13.12
2018-04-28T05:19:23.364Z,13.04
2018-04-28T05:21:16.181Z,13.15
2018-04-28T05:22:16.239Z,13.23
2018-04-28T05:24:09.233Z,13.46
2018-04-28T05:25:09.283Z,13.52
2018-04-28T05:27:02.268Z,13.52
2018-04-28T05:28:02.331Z,13.46
2018-04-28T05:29:55.374Z,13.52
2018-04-28T05:30:55.378Z,13.54
2018-04-28T05:32:48.366Z,13.57
2018-04-28T05:33:48.420Z,13.60
2018-04-28T05:35:41.410Z,13.65
2018-04-28T05:36:41.465Z,13.68
2018-04-28T05:38:34.464Z,13.81
2018-04-28T05:39:34.517Z,13.78
2018-04-28T05:41:27.500Z,13.92
2018-04-28T05:42:27.577Z,13.95
2018-04-28T05:44:20.556Z,14.08
2018-04-28T05:45:20.606Z,14.18
2018-04-28T05:47:13.593Z,14.22
2018-04-28T05:48:13.654Z,14.14
2018-04-28T05:50:06.643Z,14.15
2018-04-28T05:51:06.698Z,14.15
2018-04-28T05:52:59.717Z,14.30
2018-04-28T05:53:59.778Z,14.22
2018-04-28T05:55:52.772Z,14.33
2018-04-28T05:56:52.823Z,14.30
2018-04-28T05:58:45.814Z,14.18
2018-04-28T05:59:45.868Z,14.17
2018-04-28T06:01:38.863Z,14.30
2018-04-28T06:02:38.922Z,14.20
2018-04-28T06:04:31.917Z,14.15
2018-04-28T06:05:31.972Z,14.14
2018-04-28T06:07:24.957Z,14.22
2018-04-28T06:08:25.021Z,14.29
2018-04-28T06:10:18.014Z,14.45
2018-04-28T06:11:18.065Z,14.69
2018-04-28T06:13:11.054Z,15.00
2018-04-28T06:14:11.361Z,15.14
2018-04-28T06:16:04.106Z,15.25
2018-04-28T06:17:04.161Z,15.39
2018-04-28T06:18:57.156Z,15.79
2018-04-28T06:19:57.276Z,15.62
2018-04-28T06:21:50.194Z,15.47
2018-04-28T06:22:50.260Z,15.67
2018-04-28T06:24:43.246Z,15.68
2018-04-28T06:25:43.305Z,15.91
2018-04-28T06:27:36.293Z,15.68
2018-04-28T06:28:36.353Z,15.54
2018-04-28T06:30:29.348Z,15.55
2018-04-28T06:31:29.401Z,15.59
2018-04-28T06:33:22.385Z,15.70
2018-04-28T06:34:22.450Z,15.90
2018-04-28T06:36:15.452Z,15.84
2018-04-28T06:37:15.515Z,16.17
2018-04-28T06:39:08.514Z,16.53
2018-04-28T06:40:08.569Z,16.68
2018-04-28T06:42:01.564Z,17.26
2018-04-28T06:43:01.625Z,17.71
2018-04-28T06:44:54.633Z,18.63
2018-04-28T06:45:54.690Z,19.11
2018-04-28T06:47:47.681Z,19.56
2018-04-28T06:48:47.742Z,19.64
2018-04-28T06:50:40.738Z,19.45
2018-04-28T06:51:40.798Z,19.11
2018-04-28T06:53:33.787Z,19.36
2018-04-28T06:54:33.854Z,19.74
2018-04-28T06:56:26.851Z,21.02
2018-04-28T06:57:26.913Z,20.88
2018-04-28T06:59:19.913Z,22.70
2018-04-28T07:00:20.054Z,22.80
2018-04-28T07:02:12.966Z,23.61
2018-04-28T07:03:13.037Z,23.00
2018-04-28T07:05:06.671Z,23.63
2018-04-28T07:06:06.096Z,23.76
2018-04-28T07:07:59.099Z,23.39
2018-04-28T07:08:59.161Z,23.84
2018-04-28T07:10:53.758Z,24.48
2018-04-28T07:11:53.739Z,24.33
2018-04-28T07:13:46.735Z,24.36
2018-04-28T07:14:46.820Z,24.02
2018-04-28T07:16:39.816Z,23.34
2018-04-28T07:17:39.946Z,23.08
2018-04-28T07:19:32.886Z,23.55
2018-04-28T07:20:32.950Z,23.59
2018-04-28T07:22:25.951Z,22.93
2018-04-28T07:23:26.016Z,22.17
2018-04-28T07:25:19.028Z,21.67
2018-04-28T07:26:19.094Z,21.24
2018-04-28T07:28:12.098Z,20.11
2018-04-28T07:29:12.205Z,19.70
2018-04-28T07:31:05.175Z,18.93
2018-04-28T07:32:05.243Z,18.74
2018-04-28T07:33:58.241Z,18.40
2018-04-28T07:34:58.308Z,18.53
2018-04-28T07:36:51.314Z,18.31
2018-04-28T07:37:51.374Z,18.50
2018-04-28T07:39:44.377Z,18.80
2018-04-28T07:40:44.434Z,18.70
2018-04-28T07:42:37.429Z,18.55
2018-04-28T07:43:37.497Z,18.62
2018-04-28T07:45:30.496Z,18.31
2018-04-28T07:46:30.610Z,18.19
2018-04-28T07:48:23.553Z,18.04
2018-04-28T07:49:23.662Z,18.00
2018-04-28T07:51:16.663Z,17.74
2018-04-28T07:52:16.681Z,17.83
2018-04-28T07:54:09.680Z,17.64
2018-04-28T07:55:09.738Z,17.51
2018-04-28T07:57:02.737Z,17.42
2018-04-28T07:58:02.794Z,17.22
2018-04-28T07:59:55.805Z,17.36
2018-04-28T08:00:55.858Z,17.39
2018-04-28T08:02:48.847Z,17.24
2018-04-28T08:03:48.912Z,17.20
2018-04-28T08:05:41.911Z,17.08
2018-04-28T08:06:41.967Z,17.06
2018-04-28T08:08:34.968Z,16.97
2018-04-28T08:09:35.032Z,17.02
2018-04-28T08:11:28.035Z,17.15
2018-04-28T08:12:28.088Z,17.11
2018-04-28T08:14:21.082Z,17.02
2018-04-28T08:15:21.180Z,16.97
2018-04-28T08:17:14.150Z,17.09
2018-04-28T08:18:14.201Z,17.09
2018-04-28T08:20:07.198Z,16.93
2018-04-28T08:21:07.254Z,17.01
2018-04-28T08:23:00.242Z,17.20
2018-04-28T08:24:00.313Z,17.26
2018-04-28T08:25:53.307Z,17.54
2018-04-28T08:26:53.373Z,17.60
2018-04-28T08:28:46.355Z,17.95
2018-04-28T08:29:46.416Z,18.04
2018-04-28T08:31:39.418Z,18.26
2018-04-28T08:32:39.474Z,18.43
2018-04-28T08:34:32.471Z,19.27
2018-04-28T08:35:32.530Z,19.63
2018-04-28T08:37:25.650Z,19.96
2018-04-28T08:38:25.588Z,19.86
2018-04-28T08:40:18.626Z,20.07
2018-04-28T08:41:18.645Z,19.82
2018-04-28T08:43:11.639Z,19.56
2018-04-28T08:44:11.705Z,19.94
2018-04-28T08:46:04.705Z,19.74
2018-04-28T08:47:04.762Z,19.56
2018-04-28T08:48:57.756Z,18.83
2018-04-28T08:49:57.824Z,18.75
2018-04-28T08:51:50.878Z,18.83
2018-04-28T08:52:50.884Z,18.90
2018-04-28T08:54:43.892Z,19.48
2018-04-28T08:55:43.946Z,19.11
2018-04-28T08:57:36.947Z,18.99
2018-04-28T08:58:37.042Z,18.90
2018-04-28T09:00:30.054Z,18.74
2018-04-28T09:01:30.067Z,18.70
2018-04-28T09:03:23.567Z,18.96
2018-04-28T09:04:23.631Z,19.12
2018-04-28T09:06:16.633Z,19.15
2018-04-28T09:07:16.692Z,19.07
2018-04-28T09:09:09.715Z,19.14
2018-04-28T09:10:09.781Z,19.45
2018-04-28T09:12:02.782Z,19.04
2018-04-28T09:13:02.911Z,19.11
2018-04-28T09:14:55.833Z,19.09
2018-04-28T09:15:55.899Z,19.04
2018-04-28T09:17:48.900Z,19.37
2018-04-28T09:18:48.961Z,19.22
2018-04-28T09:20:41.961Z,19.52
2018-04-28T09:21:42.020Z,19.79
2018-04-28T09:23:35.024Z,20.14
2018-04-28T09:24:35.090Z,20.44
2018-04-28T09:26:28.095Z,20.80
2018-04-28T09:27:28.164Z,20.78
2018-04-28T09:29:21.158Z,20.87
2018-04-28T09:30:21.220Z,20.99
2018-04-28T09:32:14.224Z,20.88
2018-04-28T09:33:14.273Z,20.25
2018-04-28T09:35:07.270Z,20.34
2018-04-28T09:36:07.336Z,19.94
2018-04-28T09:38:00.345Z,19.99
2018-04-28T09:39:00.399Z,19.79
2018-04-28T09:40:53.399Z,19.30
2018-04-28T09:41:53.459Z,19.31
2018-04-28T09:43:46.456Z,19.41
2018-04-28T09:44:46.519Z,19.48
2018-04-28T09:46:39.526Z,19.47
2018-04-28T09:47:39.580Z,19.34
2018-04-28T09:49:32.573Z,19.18
2018-04-28T09:50:32.641Z,19.09
2018-04-28T09:52:25.647Z,18.83
2018-04-28T09:53:25.706Z,18.58
2018-04-28T09:55:18.700Z,18.47
2018-04-28T09:56:18.763Z,18.56
2018-04-28T09:58:11.766Z,18.29
2018-04-28T09:59:11.819Z,18.23
2018-04-28T10:01:04.824Z,18.37
2018-04-28T10:02:04.883Z,18.26
2018-04-28T10:03:57.881Z,18.23
2018-04-28T10:04:57.940Z,18.26
2018-04-28T10:06:50.946Z,18.40
2018-04-28T10:07:51.006Z,18.43
2018-04-28T10:09:44.005Z,18.66
2018-04-28T10:10:44.071Z,18.83
2018-04-28T10:12:37.139Z,19.21
2018-04-28T10:13:37.125Z,19.39
2018-04-28T10:15:30.123Z,19.36
2018-04-28T10:16:30.188Z,19.44
2018-04-28T10:18:23.188Z,19.24
2018-04-28T10:19:23.245Z,19.00
2018-04-28T10:21:16.247Z,18.70
2018-04-28T10:22:16.309Z,18.50
2018-04-28T10:24:09.298Z,18.33
2018-04-28T10:25:09.365Z,18.31
2018-04-28T10:27:02.358Z,18.45
2018-04-28T10:28:02.465Z,18.50
2018-04-28T10:29:55.919Z,18.01
2018-04-28T10:30:56.032Z,18.08
2018-04-28T10:32:49.490Z,18.04
2018-04-28T10:33:49.551Z,18.04
2018-04-28T10:35:42.537Z,17.71
2018-04-28T10:36:42.600Z,17.80
2018-04-28T10:38:35.599Z,17.92
2018-04-28T10:39:35.657Z,18.08
2018-04-28T10:41:28.661Z,18.16
2018-04-28T10:42:28.720Z,18.05
2018-04-28T10:44:21.709Z,18.00
2018-04-28T10:45:21.774Z,18.18
2018-04-28T10:47:14.776Z,18.25
2018-04-28T10:48:14.843Z,18.41
2018-04-28T10:50:07.828Z,18.25
2018-04-28T10:51:07.892Z,18.38
2018-04-28T10:53:00.894Z,18.25
2018-04-28T10:54:00.954Z,18.22
2018-04-28T10:55:53.946Z,18.31
2018-04-28T10:56:54.011Z,18.28
2018-04-28T10:58:47.013Z,18.56
2018-04-28T10:59:47.065Z,18.62
2018-04-28T11:01:40.068Z,18.84
2018-04-28T11:02:40.127Z,18.71
2018-04-28T11:04:33.120Z,18.86
2018-04-28T11:05:33.188Z,18.73
2018-04-28T11:07:26.185Z,18.89
2018-04-28T11:08:26.244Z,19.04
2018-04-28T11:10:19.308Z,19.24
2018-04-28T11:11:19.306Z,19.16
2018-04-28T11:13:12.304Z,18.71
2018-04-28T11:14:12.362Z,18.74
2018-04-28T11:16:05.361Z,19.24
2018-04-28T11:17:05.437Z,19.27
2018-04-28T11:18:58.425Z,19.45
2018-04-28T11:19:58.555Z,19.55
2018-04-28T11:21:51.482Z,19.21
2018-04-28T11:22:51.541Z,19.09
2018-04-28T11:24:44.543Z,19.26
2018-04-28T11:25:44.730Z,19.07
2018-04-28T11:27:37.608Z,18.98
2018-04-28T11:28:37.668Z,19.14
2018-04-28T11:30:30.672Z,18.99
2018-04-28T11:31:30.739Z,19.15
2018-04-28T11:33:23.731Z,18.84
2018-04-28T11:34:23.793Z,18.99
2018-04-28T11:36:16.789Z,19.22
2018-04-28T11:37:16.855Z,19.36
2018-04-28T11:39:09.856Z,18.96
2018-04-28T11:40:09.914Z,19.00
2018-04-28T11:42:02.917Z,18.98
2018-04-28T11:43:02.975Z,19.08
2018-04-28T11:44:55.965Z,18.92
2018-04-28T11:45:56.029Z,18.88
2018-04-28T11:47:49.035Z,18.59
2018-04-28T11:48:49.091Z,18.43
2018-04-28T11:50:42.084Z,18.43
2018-04-28T11:51:42.149Z,18.43
2018-04-28T11:53:35.152Z,18.13
2018-04-28T11:54:35.209Z,17.95
2018-04-28T11:56:28.201Z,17.87
2018-04-28T11:57:28.266Z,17.67
2018-04-28T11:59:21.263Z,17.56
2018-04-28T12:00:21.325Z,17.46
2018-04-28T12:02:14.319Z,17.42
2018-04-28T12:03:14.380Z,17.39
2018-04-28T12:05:07.378Z,17.30
2018-04-28T12:06:07.435Z,17.26
2018-04-28T12:08:00.433Z,17.29
2018-04-28T12:09:00.489Z,17.36
2018-04-28T12:10:53.481Z,17.78
2018-04-28T12:11:53.546Z,17.90
2018-04-28T12:13:46.543Z,17.87
2018-04-28T12:14:46.607Z,17.97
2018-04-28T12:16:39.599Z,18.49
2018-04-28T12:17:39.653Z,18.92
2018-04-28T12:19:32.651Z,19.39
2018-04-28T12:20:32.709Z,19.39
2018-04-28T12:22:25.705Z,18.96
2018-04-28T12:23:25.766Z,19.12
2018-04-28T12:25:18.762Z,19.33
2018-04-28T12:26:18.822Z,19.37
2018-04-28T12:28:11.828Z,19.36
2018-04-28T12:29:11.883Z,19.36
2018-04-28T12:31:04.875Z,19.27
2018-04-28T12:32:04.940Z,19.33
2018-04-28T12:33:57.939Z,19.19
2018-04-28T12:34:57.997Z,19.12
2018-04-28T12:36:50.999Z,19.33
2018-04-28T12:37:51.066Z,19.56
2018-04-28T12:39:44.068Z,19.86
2018-04-28T12:40:44.122Z,20.04
2018-04-28T12:42:37.125Z,19.55
2018-04-28T12:43:37.187Z,19.52
2018-04-28T12:45:30.178Z,19.45
2018-04-28T12:46:30.239Z,19.27
2018-04-28T12:48:23.242Z,19.00
2018-04-28T12:49:23.302Z,19.09
2018-04-28T12:51:16.291Z,19.21
2018-04-28T12:52:16.353Z,19.37
2018-04-28T12:54:09.355Z,19.14
2018-04-28T12:55:09.413Z,19.16
2018-04-28T12:57:02.405Z,19.30
2018-04-28T12:58:02.474Z,19.29
2018-04-28T12:59:55.469Z,19.07
2018-04-28T13:00:55.526Z,19.07
2018-04-28T13:02:48.530Z,19.18
2018-04-28T13:03:48.582Z,19.29
2018-04-28T13:05:41.574Z,18.96
2018-04-28T13:06:41.638Z,18.98
2018-04-28T13:08:34.639Z,19.00
2018-04-28T13:09:34.695Z,19.14
2018-04-28T13:11:27.687Z,19.00
2018-04-28T13:12:27.756Z,19.14
2018-04-28T13:14:20.750Z,18.98
2018-04-28T13:15:20.808Z,19.00
2018-04-28T13:17:13.800Z,18.99
2018-04-28T13:18:13.865Z,19.27
2018-04-28T13:20:06.863Z,19.39
2018-04-28T13:21:06.921Z,19.56
2018-04-28T13:22:59.915Z,19.64
2018-04-28T13:23:59.976Z,19.56
2018-04-28T13:25:52.968Z,19.77
2018-04-28T13:26:53.082Z,19.66
2018-04-28T13:28:46.028Z,19.71
2018-04-28T13:29:46.090Z,19.67
2018-04-28T13:31:39.085Z,19.56
2018-04-28T13:32:39.145Z,19.44
2018-04-28T13:34:32.170Z,19.48
2018-04-28T13:35:32.227Z,19.47
2018-04-28T13:37:25.727Z,19.31
2018-04-28T13:38:25.793Z,19.19
2018-04-28T13:40:18.790Z,19.24
2018-04-28T13:41:18.848Z,19.14
2018-04-28T13:43:11.845Z,19.04
2018-04-28T13:44:11.904Z,19.12
2018-04-28T13:46:04.899Z,19.31
2018-04-28T13:47:04.961Z,19.64
2018-04-28T13:48:57.962Z,19.88
2018-04-28T13:49:58.018Z,20.03
2018-04-28T13:51:51.029Z,20.26
2018-04-28T13:52:51.079Z,20.44
2018-04-28T13:54:44.071Z,20.04
2018-04-28T13:55:44.133Z,19.94
2018-04-28T13:57:37.123Z,19.92
2018-04-28T13:58:37.189Z,20.03
2018-04-28T14:00:30.187Z,20.02
2018-04-28T14:01:30.246Z,20.07
2018-04-28T14:03:23.246Z,20.00
2018-04-28T14:04:23.305Z,20.07
2018-04-28T14:06:16.300Z,20.39
2018-04-28T14:07:16.369Z,20.74
2018-04-28T14:09:09.372Z,20.39
2018-04-28T14:10:09.434Z,20.21
2018-04-28T14:12:02.429Z,20.04
2018-04-28T14:13:02.497Z,20.03
2018-04-28T14:14:55.496Z,19.81
2018-04-28T14:15:55.553Z,19.81
2018-04-28T14:17:48.612Z,19.95
2018-04-28T14:18:48.611Z,19.92
2018-04-28T14:20:41.613Z,20.06
2018-04-28T14:21:41.670Z,19.95
2018-04-28T14:23:34.670Z,20.07
2018-04-28T14:24:34.726Z,20.09
2018-04-28T14:26:27.720Z,20.03
2018-04-28T14:27:27.834Z,19.99
2018-04-28T14:29:20.789Z,20.02
2018-04-28T14:30:20.847Z,20.02
2018-04-28T14:32:13.844Z,19.96
2018-04-28T14:33:13.910Z,20.13
2018-04-28T14:35:06.911Z,20.11
2018-04-28T14:36:06.973Z,20.26
2018-04-28T14:38:02.477Z,20.51
2018-04-28T14:39:02.549Z,20.56
2018-04-28T14:40:55.570Z,20.87
2018-04-28T14:41:55.602Z,20.78
2018-04-28T14:43:48.601Z,20.82
2018-04-28T14:44:48.662Z,20.74
2018-04-28T14:46:41.661Z,20.60
2018-04-28T14:47:41.721Z,20.65
2018-04-28T14:49:34.730Z,20.59
2018-04-28T14:50:34.782Z,20.58
2018-04-28T14:52:27.777Z,20.09
2018-04-28T14:53:28.109Z,20.26
2018-04-28T14:55:20.849Z,20.11
2018-04-28T14:56:20.923Z,20.09
2018-04-28T14:58:13.903Z,19.95
2018-04-28T14:59:13.972Z,19.63
2018-04-28T15:01:06.982Z,19.56
2018-04-28T15:02:07.036Z,19.54
2018-04-28T15:04:00.053Z,19.64
2018-04-28T15:05:00.105Z,19.73
2018-04-28T15:06:53.099Z,19.66
2018-04-28T15:07:53.166Z,19.59
2018-04-28T15:09:46.185Z,19.79
2018-04-28T15:10:46.222Z,19.77
2018-04-28T15:12:39.224Z,19.62
2018-04-28T15:13:39.280Z,19.69
2018-04-28T15:15:32.281Z,19.58
2018-04-28T15:16:32.338Z,19.66
2018-04-28T15:18:25.343Z,19.58
2018-04-28T15:19:25.414Z,19.71
2018-04-28T15:21:18.409Z,19.67
2018-04-28T15:22:18.473Z,19.71
2018-04-28T15:24:11.464Z,19.70
2018-04-28T15:25:11.551Z,19.67
2018-04-28T15:27:04.593Z,19.89
2018-04-28T15:28:04.644Z,19.82
2018-04-28T15:29:57.599Z,20.03
2018-04-28T15:30:57.659Z,20.06
2018-04-28T15:32:50.656Z,20.09
2018-04-28T15:33:50.716Z,20.00
2018-04-28T15:35:43.735Z,19.91
2018-04-28T15:36:43.775Z,19.95
2018-04-28T15:38:36.769Z,19.82
2018-04-28T15:39:36.921Z,19.92
2018-04-28T15:41:42.486Z,19.81
2018-04-28T15:42:42.539Z,19.82
2018-04-28T15:44:35.561Z,19.71
2018-04-28T15:45:35.597Z,19.74
2018-04-28T15:47:28.599Z,19.66
2018-04-28T15:48:28.662Z,19.59
2018-04-28T15:50:21.679Z,19.31
2018-04-28T15:51:21.722Z,19.26
2018-04-28T15:53:14.781Z,19.21
2018-04-28T15:54:14.789Z,19.14
2018-04-28T15:56:07.790Z,18.96
2018-04-28T15:57:07.838Z,19.00
2018-04-28T15:59:00.872Z,18.99
2018-04-28T16:00:00.914Z,19.11
2018-04-28T16:01:53.926Z,19.26
2018-04-28T16:02:53.994Z,19.22
2018-04-28T16:04:47.003Z,19.34
2018-04-28T16:05:47.049Z,19.36
2018-04-28T16:07:40.054Z,19.54
2018-04-28T16:08:40.113Z,19.40
2018-04-28T16:10:33.112Z,19.41
2018-04-28T16:11:33.174Z,19.36
2018-04-28T16:13:26.167Z,19.34
2018-04-28T16:14:26.238Z,19.34
2018-04-28T16:16:19.230Z,19.40
2018-04-28T16:17:19.288Z,19.40
2018-04-28T16:19:12.283Z,19.36
2018-04-28T16:20:12.345Z,19.36
2018-04-28T16:22:05.359Z,19.18
2018-04-28T16:23:05.406Z,19.15
2018-04-28T16:24:58.409Z,19.14
2018-04-28T16:25:58.462Z,19.02
2018-04-28T16:27:51.453Z,18.96
2018-04-28T16:28:51.521Z,18.99
2018-04-28T16:30:44.520Z,18.84
2018-04-28T16:31:44.577Z,18.90
2018-04-28T16:33:37.610Z,18.83
2018-04-28T16:34:37.651Z,18.81
2018-04-28T16:36:30.631Z,18.86
2018-04-28T16:37:30.691Z,18.81
2018-04-28T16:39:23.683Z,18.86
2018-04-28T16:40:23.746Z,18.81
2018-04-28T16:42:16.744Z,18.88
2018-04-28T16:43:16.806Z,18.83
2018-04-28T16:45:09.809Z,18.71
2018-04-28T16:46:09.859Z,18.78
2018-04-28T16:48:02.865Z,18.63
2018-04-28T16:49:02.917Z,18.65
2018-04-28T16:50:55.941Z,18.70
2018-04-28T16:51:55.976Z,18.56
2018-04-28T16:53:48.968Z,18.55
2018-04-28T16:54:49.033Z,18.56
2018-04-28T16:56:42.031Z,18.60
2018-04-28T16:57:42.091Z,18.58
2018-04-28T16:59:36.577Z,18.58
2018-04-28T17:00:36.643Z,18.58
2018-04-28T17:02:29.651Z,18.55
2018-04-28T17:03:29.717Z,18.58
2018-04-28T17:05:22.715Z,18.52
2018-04-28T17:06:23.079Z,18.59
2018-04-28T17:08:15.762Z,18.55
2018-04-28T17:09:15.832Z,18.55
2018-04-28T17:11:08.832Z,18.43
2018-04-28T17:12:08.900Z,18.40
2018-04-28T17:14:01.878Z,18.34
2018-04-28T17:15:01.945Z,18.28
2018-04-28T17:16:54.996Z,18.25
2018-04-28T17:17:55.031Z,18.11
2018-04-28T17:19:48.027Z,18.08
2018-04-28T17:20:48.095Z,18.08
2018-04-28T17:22:41.169Z,17.98
2018-04-28T17:23:41.149Z,18.00
2018-04-28T17:25:34.179Z,17.87
2018-04-28T17:26:34.210Z,17.86
2018-04-28T17:28:27.201Z,17.86
2018-04-28T17:29:27.265Z,17.85
2018-04-28T17:31:20.279Z,17.70
2018-04-28T17:32:20.322Z,17.71
2018-04-28T17:34:13.319Z,17.70
2018-04-28T17:35:13.379Z,17.72
2018-04-28T17:37:06.414Z,17.76
2018-04-28T17:38:06.434Z,17.68
2018-04-28T17:39:59.424Z,17.78
2018-04-28T17:40:59.488Z,17.64
2018-04-28T17:42:52.539Z,17.79
2018-04-28T17:43:52.550Z,17.68
2018-04-28T17:45:45.562Z,17.67
2018-04-28T17:46:45.617Z,17.65
2018-04-28T17:48:38.604Z,17.68
2018-04-28T17:49:38.666Z,17.80
2018-04-28T17:51:31.685Z,17.79
2018-04-28T17:52:31.739Z,17.64
2018-04-28T17:54:24.733Z,17.60
2018-04-28T17:55:24.801Z,17.59
2018-04-28T17:57:17.796Z,17.52
2018-04-28T17:58:17.850Z,17.56
2018-04-28T18:00:10.843Z,17.52
2018-04-28T18:01:10.906Z,17.46
2018-04-28T18:03:03.907Z,17.39
2018-04-28T18:04:03.964Z,17.34
2018-04-28T18:05:56.974Z,17.44
2018-04-28T18:06:57.018Z,17.34
2018-04-28T18:08:50.008Z,17.33
2018-04-28T18:09:50.125Z,17.27
2018-04-28T18:11:43.075Z,17.30
2018-04-28T18:12:43.133Z,17.31
2018-04-28T18:14:36.182Z,17.27
2018-04-28T18:15:36.189Z,17.31
2018-04-28T18:17:29.187Z,17.27
2018-04-28T18:18:29.246Z,17.30
2018-04-28T18:20:22.236Z,17.26
2018-04-28T18:21:22.297Z,17.34
2018-04-28T18:23:15.317Z,17.22
2018-04-28T18:24:15.359Z,17.15
2018-04-28T18:26:08.890Z,17.01
2018-04-28T18:27:08.920Z,17.02
2018-04-28T18:29:01.915Z,16.87
2018-04-28T18:30:01.977Z,16.86
2018-04-28T18:31:54.976Z,16.72
2018-04-28T18:32:55.039Z,16.75
2018-04-28T18:34:48.023Z,16.75